Terminal Aerodrome Forecast
Issued by NWS

Home | Current Version | Previous Version | Text Only | Print | Product List | Glossary On
Versions: 1 2 3 4 5 6 7 8 9 10 11 12 13 14 15
000
FTUS45 KVEF 211126
TAFEED
TAF
KEED 211126Z 2112/2212 26010KT P6SM SCT080
     FM211600 27013G20KT P6SM FEW100
     FM220200 25008KT P6SM SCT200=

USA.gov is the U.S. government's official web portal to all federal, state and local government web resources and services.